Terminal Aerodrome Forecast
Issued by NWS Quad Cities IA IL

Home | Current Version | Previous Version | Text Only | Print | Product List | Glossary On
Versions: 1 2 3 4 5 6 7 8 9 10 11 12 13 14 15 16 17 18 19 20 21
000
FTUS43 KDVN 251501 AAA
TAFMLI
TAF AMD
KMLI 251501Z 2515/2612 08016KT 3SM RA BR OVC007
     FM251800 07015G22KT 5SM -RA BR OVC015
     FM260000 06013KT P6SM BKN025
     FM260600 05006KT P6SM SKC=

USA.gov is the U.S. government's official web portal to all federal, state and local government web resources and services.